createdAt,value
2022-09-21T06:12:13.925Z,101893.38
2022-09-21T06:14:51.333Z,101891.00
2022-09-21T06:17:28.577Z,101886.16
2022-09-21T06:20:07.606Z,101886.16
2022-09-21T06:22:44.777Z,101884.06
2022-09-21T06:25:22.433Z,101883.88
2022-09-21T06:28:07.042Z,101885.38
2022-09-21T06:30:45.456Z,101885.94
2022-09-21T06:33:24.027Z,101893.75
2022-09-21T06:36:03.294Z,101880.97
2022-09-21T06:38:39.933Z,101893.16
2022-09-21T06:41:21.237Z,101887.63
2022-09-21T06:44:01.364Z,101895.34
2022-09-21T06:46:38.699Z,101898.63
2022-09-21T06:49:15.651Z,101894.06
2022-09-21T06:51:53.099Z,101899.19
2022-09-21T06:54:30.847Z,101900.69
2022-09-21T06:57:08.502Z,101897.09
2022-09-21T06:59:48.616Z,101898.59
2022-09-21T07:02:26.836Z,101901.81
2022-09-21T07:05:04.386Z,101899.72
2022-09-21T07:07:42.167Z,101900.38
2022-09-21T07:10:21.202Z,101908.16
2022-09-21T07:13:06.364Z,101907.88
2022-09-21T07:15:51.383Z,101911.84
2022-09-21T07:18:42.607Z,101912.59
2022-09-21T07:21:20.350Z,101916.00
2022-09-21T07:23:57.609Z,101910.56
2022-09-21T07:26:34.808Z,101914.75
2022-09-21T07:29:12.789Z,101918.19
2022-09-21T07:31:52.463Z,101913.47
2022-09-21T07:34:30.088Z,101918.81
2022-09-21T07:37:07.449Z,101917.13
2022-09-21T07:39:44.937Z,101916.16
2022-09-21T07:42:23.063Z,101920.53
2022-09-21T07:45:04.320Z,101915.00
2022-09-21T07:47:44.709Z,101922.91
2022-09-21T07:50:22.066Z,101914.69
2022-09-21T07:52:59.106Z,101917.06
2022-09-21T07:55:36.348Z,101917.81
2022-09-21T07:58:25.574Z,101915.69
2022-09-21T08:01:02.940Z,101910.16
2022-09-21T08:03:42.937Z,101909.72
2022-09-21T08:06:20.686Z,101912.97
2022-09-21T08:08:58.255Z,101913.53
2022-09-21T08:11:37.784Z,101912.47
2022-09-21T08:14:23.803Z,101913.88
2022-09-21T08:17:03.774Z,101908.09
2022-09-21T08:19:44.236Z,101909.63
2022-09-21T08:22:25.124Z,101906.50
2022-09-21T08:25:02.152Z,101913.25
2022-09-21T08:27:40.935Z,101914.09
2022-09-21T08:30:18.180Z,101909.19
2022-09-21T08:32:58.836Z,101903.34
2022-09-21T08:35:39.000Z,101904.94
2022-09-21T08:38:16.315Z,101903.63
2022-09-21T08:40:55.635Z,101905.13
2022-09-21T08:43:42.432Z,101916.44
2022-09-21T08:46:24.383Z,101908.34
2022-09-21T08:49:07.531Z,101909.28
2022-09-21T08:51:54.961Z,101905.75
2022-09-21T08:54:42.424Z,101900.00
2022-09-21T08:57:21.236Z,101903.41
2022-09-21T08:59:58.788Z,101900.19
2022-09-21T09:02:59.896Z,101901.00
2022-09-21T09:05:51.468Z,101901.44
2022-09-21T09:09:18.045Z,101898.19
2022-09-21T09:12:19.245Z,101888.56
2022-09-21T09:15:17.584Z,101895.84
2022-09-21T09:18:02.103Z,101895.94
2022-09-21T09:20:43.885Z,101893.50
2022-09-21T09:23:29.163Z,101906.31
2022-09-21T09:26:15.401Z,101905.88
2022-09-21T09:28:58.846Z,101905.88
2022-09-21T09:31:38.405Z,101900.28
2022-09-21T09:34:26.200Z,101897.97
2022-09-21T09:37:14.256Z,101887.50
2022-09-21T09:39:58.896Z,101898.81
2022-09-21T09:42:59.208Z,101883.25
2022-09-21T09:46:02.720Z,101894.03
2022-09-21T09:49:09.956Z,101890.75
2022-09-21T09:51:47.632Z,101888.78
2022-09-21T09:54:29.105Z,101893.63
2022-09-21T09:57:09.132Z,101908.53
2022-09-21T09:59:55.812Z,101910.56
2022-09-21T10:02:33.840Z,101912.63
2022-09-21T10:05:26.621Z,101909.41
2022-09-21T10:08:04.646Z,101922.56
2022-09-21T10:10:44.553Z,101913.72
2022-09-21T10:13:31.824Z,101911.41
2022-09-21T10:16:22.167Z,101929.03
2022-09-21T10:19:02.210Z,101917.84
2022-09-21T10:21:46.584Z,101924.63
2022-09-21T10:24:29.575Z,101929.28
2022-09-21T10:27:12.080Z,101926.81
2022-09-21T10:29:52.105Z,101925.38
2022-09-21T10:32:32.445Z,101912.91
2022-09-21T10:35:23.923Z,101925.06
2022-09-21T10:38:22.015Z,101919.94
2022-09-21T10:40:59.984Z,101922.66
2022-09-21T10:43:45.136Z,101912.84
2022-09-21T10:46:36.120Z,101910.78
2022-09-21T10:49:26.341Z,101905.91
2022-09-21T10:52:05.401Z,101910.97
2022-09-21T10:54:46.685Z,101900.59
2022-09-21T10:57:27.133Z,101919.03
2022-09-21T11:00:36.018Z,101922.69
2022-09-21T11:03:52.780Z,101919.53
2022-09-21T11:06:39.544Z,101916.75
2022-09-21T11:09:21.950Z,101920.03
2022-09-21T11:12:06.054Z,101921.84
2022-09-21T11:14:53.165Z,101924.56
2022-09-21T11:17:40.117Z,101921.88
2022-09-21T11:20:32.138Z,101933.19
2022-09-21T11:23:28.405Z,101930.88
2022-09-21T11:26:15.749Z,101929.66
2022-09-21T11:29:00.340Z,101934.63
2022-09-21T11:32:11.790Z,101930.03
2022-09-21T11:35:29.917Z,101935.97
2022-09-21T11:38:20.063Z,101937.53
2022-09-21T11:41:36.229Z,101937.31
2022-09-21T11:44:50.332Z,101939.75
2022-09-21T11:47:58.005Z,101936.06
2022-09-21T11:50:59.548Z,101942.78
2022-09-21T11:53:57.998Z,101934.88
2022-09-21T11:56:48.683Z,101931.34
2022-09-21T11:59:47.814Z,101937.06
2022-09-21T12:02:58.464Z,101924.50
2022-09-21T12:05:45.148Z,101928.41
2022-09-21T12:08:43.661Z,101930.22
2022-09-21T12:11:38.427Z,101928.56
2022-09-21T12:14:28.995Z,101927.09
2022-09-21T12:17:15.304Z,101918.22
2022-09-21T12:20:02.839Z,101919.66
2022-09-21T12:22:43.723Z,101924.97
2022-09-21T12:25:27.468Z,101916.84
2022-09-21T12:28:15.333Z,101918.59
2022-09-21T12:31:00.775Z,101925.25
2022-09-21T12:33:43.819Z,101927.94
2022-09-21T12:36:23.734Z,101924.47
2022-09-21T12:39:09.141Z,101928.09
2022-09-21T12:41:55.438Z,101926.47
2022-09-21T12:44:55.154Z,101930.16
2022-09-21T12:47:52.014Z,101941.41
2022-09-21T12:50:37.764Z,101937.94
2022-09-21T12:53:22.035Z,101946.06
2022-09-21T12:56:10.004Z,101945.91
2022-09-21T12:59:09.976Z,101938.78
2022-09-21T13:01:57.491Z,101933.88
2022-09-21T13:04:53.759Z,101940.34
2022-09-21T13:08:05.503Z,101945.63
2022-09-21T13:10:59.671Z,101929.34
2022-09-21T13:13:41.943Z,101934.88
2022-09-21T13:16:33.119Z,101933.34
2022-09-21T13:19:25.250Z,101926.53
2022-09-21T13:22:25.172Z,101935.69
2022-09-21T13:25:06.993Z,101922.84
2022-09-21T13:28:09.583Z,101922.00
2022-09-21T13:30:49.227Z,101924.28
2022-09-21T13:33:43.764Z,101927.94
2022-09-21T13:36:39.502Z,101924.28
2022-09-21T13:39:22.571Z,101917.63
2022-09-21T13:42:03.749Z,101920.88
2022-09-21T13:44:46.633Z,101933.06
2022-09-21T13:47:34.096Z,101925.56
2022-09-21T13:50:22.082Z,101934.66
2022-09-21T13:53:06.566Z,101934.91
2022-09-21T13:55:54.210Z,101938.59
2022-09-21T13:58:37.930Z,101932.81
2022-09-21T14:01:45.894Z,101933.63
2022-09-21T14:04:32.359Z,101936.31
2022-09-21T14:07:11.830Z,101928.84
2022-09-21T14:10:01.050Z,101929.09
2022-09-21T14:12:46.430Z,101934.50
2022-09-21T14:15:41.574Z,101931.53
2022-09-21T14:18:40.598Z,101933.63
2022-09-21T14:21:22.428Z,101946.13
2022-09-21T14:24:22.510Z,101947.78
2022-09-21T14:27:23.971Z,101941.88
2022-09-21T14:30:07.787Z,101932.50
2022-09-21T14:32:49.421Z,101944.38
2022-09-21T14:35:36.459Z,101943.31
2022-09-21T14:38:26.320Z,101932.94
2022-09-21T14:41:11.934Z,101941.34
2022-09-21T14:43:59.149Z,101934.41
2022-09-21T14:47:25.753Z,101948.84
2022-09-21T14:50:19.957Z,101954.25
2022-09-21T14:53:39.641Z,101952.44
2022-09-21T14:56:33.843Z,101946.22
2022-09-21T14:59:34.045Z,101953.09
2022-09-21T15:02:23.275Z,101944.88
2022-09-21T15:05:33.250Z,101952.00
2022-09-21T15:08:44.812Z,101955.25
2022-09-21T15:11:31.721Z,101947.75
2022-09-21T15:14:26.196Z,101954.09
2022-09-21T15:17:04.888Z,101951.53
2022-09-21T15:19:43.604Z,101950.72
2022-09-21T15:22:22.712Z,101954.25
2022-09-21T15:25:02.563Z,101952.69
2022-09-21T15:27:39.993Z,101952.44
2022-09-21T15:30:26.990Z,101950.72
2022-09-21T15:33:06.462Z,101961.66
2022-09-21T15:35:49.143Z,101958.94
2022-09-21T15:38:37.003Z,101966.09
2022-09-21T15:41:43.452Z,101960.56
2022-09-21T15:44:28.123Z,101959.56
2022-09-21T15:47:12.882Z,101965.09
2022-09-21T15:49:52.091Z,101967.41
2022-09-21T15:52:36.555Z,101968.09
2022-09-21T15:55:23.413Z,101971.56
2022-09-21T15:58:04.740Z,101963.38
2022-09-21T16:00:57.051Z,101971.94
2022-09-21T16:03:36.673Z,101978.91
2022-09-21T16:06:30.022Z,101978.53
2022-09-21T16:09:40.105Z,101977.06
2022-09-21T16:12:49.812Z,101983.38
2022-09-21T16:15:29.526Z,101978.53
